sensor_id;sensor_type;location;lat;lon;timestamp;P1;durP1;ratioP1;P2;durP2;ratioP2
35488;SDS011;21602;55.670;37.578;2023-03-14T00:01:56;4.95;;;1.73;;
35488;SDS011;21602;55.670;37.578;2023-03-14T00:04:22;3.83;;;1.77;;
35488;SDS011;21602;55.670;37.578;2023-03-14T00:06:47;3.65;;;1.75;;
35488;SDS011;21602;55.670;37.578;2023-03-14T00:09:15;2.80;;;1.60;;
35488;SDS011;21602;55.670;37.578;2023-03-14T00:11:41;4.65;;;1.98;;
35488;SDS011;21602;55.670;37.578;2023-03-14T00:14:07;5.03;;;2.08;;
35488;SDS011;21602;55.670;37.578;2023-03-14T00:16:33;2.35;;;1.70;;
35488;SDS011;21602;55.670;37.578;2023-03-14T00:18:59;4.30;;;2.40;;
35488;SDS011;21602;55.670;37.578;2023-03-14T00:21:25;4.10;;;2.08;;
35488;SDS011;21602;55.670;37.578;2023-03-14T00:23:51;3.33;;;1.80;;
35488;SDS011;21602;55.670;37.578;2023-03-14T00:26:19;2.97;;;1.80;;
35488;SDS011;21602;55.670;37.578;2023-03-14T00:28:46;3.72;;;1.92;;
35488;SDS011;21602;55.670;37.578;2023-03-14T00:31:16;3.70;;;1.70;;
35488;SDS011;21602;55.670;37.578;2023-03-14T00:33:42;1.77;;;1.50;;
35488;SDS011;21602;55.670;37.578;2023-03-14T00:36:12;4.00;;;1.55;;
35488;SDS011;21602;55.670;37.578;2023-03-14T00:38:40;5.45;;;1.90;;
35488;SDS011;21602;55.670;37.578;2023-03-14T00:41:10;12.20;;;2.05;;
35488;SDS011;21602;55.670;37.578;2023-03-14T00:43:54;3.65;;;2.08;;
35488;SDS011;21602;55.670;37.578;2023-03-14T00:46:20;4.13;;;1.80;;
35488;SDS011;21602;55.670;37.578;2023-03-14T00:48:46;3.53;;;1.60;;
35488;SDS011;21602;55.670;37.578;2023-03-14T00:51:12;4.18;;;2.10;;
35488;SDS011;21602;55.670;37.578;2023-03-14T00:53:42;2.53;;;1.52;;
35488;SDS011;21602;55.670;37.578;2023-03-14T00:56:10;3.58;;;1.90;;
35488;SDS011;21602;55.670;37.578;2023-03-14T00:58:37;3.47;;;1.80;;
35488;SDS011;21602;55.670;37.578;2023-03-14T01:01:07;5.03;;;1.67;;
35488;SDS011;21602;55.670;37.578;2023-03-14T01:03:34;3.50;;;1.33;;
35488;SDS011;21602;55.670;37.578;2023-03-14T01:06:10;2.03;;;1.48;;
35488;SDS011;21602;55.670;37.578;2023-03-14T01:08:44;2.70;;;1.67;;
35488;SDS011;21602;55.670;37.578;2023-03-14T01:11:15;2.17;;;1.50;;
35488;SDS011;21602;55.670;37.578;2023-03-14T01:13:43;3.78;;;2.33;;
35488;SDS011;21602;55.670;37.578;2023-03-14T01:16:10;5.10;;;1.70;;
35488;SDS011;21602;55.670;37.578;2023-03-14T01:18:37;4.18;;;1.17;;
35488;SDS011;21602;55.670;37.578;2023-03-14T01:21:04;1.77;;;1.50;;
35488;SDS011;21602;55.670;37.578;2023-03-14T01:23:38;2.40;;;1.95;;
35488;SDS011;21602;55.670;37.578;2023-03-14T01:26:04;3.03;;;1.80;;
35488;SDS011;21602;55.670;37.578;2023-03-14T01:28:33;5.55;;;1.90;;
35488;SDS011;21602;55.670;37.578;2023-03-14T01:31:05;2.97;;;1.88;;
35488;SDS011;21602;55.670;37.578;2023-03-14T01:33:32;2.17;;;1.52;;
35488;SDS011;21602;55.670;37.578;2023-03-14T01:35:58;4.75;;;1.80;;
35488;SDS011;21602;55.670;37.578;2023-03-14T01:38:25;3.63;;;1.85;;
35488;SDS011;21602;55.670;37.578;2023-03-14T01:40:50;3.45;;;2.05;;
35488;SDS011;21602;55.670;37.578;2023-03-14T01:43:18;7.07;;;2.20;;
35488;SDS011;21602;55.670;37.578;2023-03-14T01:48:37;2.83;;;1.83;;
35488;SDS011;21602;55.670;37.578;2023-03-14T01:51:07;3.38;;;1.80;;
35488;SDS011;21602;55.670;37.578;2023-03-14T01:53:36;6.10;;;2.28;;
35488;SDS011;21602;55.670;37.578;2023-03-14T01:56:05;4.78;;;2.20;;
35488;SDS011;21602;55.670;37.578;2023-03-14T01:58:33;4.95;;;1.80;;
35488;SDS011;21602;55.670;37.578;2023-03-14T02:01:02;6.25;;;2.63;;
35488;SDS011;21602;55.670;37.578;2023-03-14T02:03:30;3.50;;;1.90;;
35488;SDS011;21602;55.670;37.578;2023-03-14T02:06:03;4.47;;;2.15;;
35488;SDS011;21602;55.670;37.578;2023-03-14T02:08:32;3.88;;;2.10;;
35488;SDS011;21602;55.670;37.578;2023-03-14T02:11:03;5.43;;;2.55;;
35488;SDS011;21602;55.670;37.578;2023-03-14T02:13:48;3.88;;;2.33;;
35488;SDS011;21602;55.670;37.578;2023-03-14T02:16:34;3.38;;;2.38;;
35488;SDS011;21602;55.670;37.578;2023-03-14T02:22:33;4.40;;;2.08;;
35488;SDS011;21602;55.670;37.578;2023-03-14T02:25:13;4.65;;;2.60;;
35488;SDS011;21602;55.670;37.578;2023-03-14T02:27:46;3.30;;;2.70;;
35488;SDS011;21602;55.670;37.578;2023-03-14T02:30:14;6.55;;;3.15;;
35488;SDS011;21602;55.670;37.578;2023-03-14T02:33:10;4.20;;;2.45;;
35488;SDS011;21602;55.670;37.578;2023-03-14T02:35:53;5.95;;;2.78;;
35488;SDS011;21602;55.670;37.578;2023-03-14T02:41:11;5.50;;;2.87;;
35488;SDS011;21602;55.670;37.578;2023-03-14T02:43:43;3.10;;;2.47;;
35488;SDS011;21602;55.670;37.578;2023-03-14T02:46:12;4.65;;;2.95;;
35488;SDS011;21602;55.670;37.578;2023-03-14T02:48:50;10.07;;;3.53;;
35488;SDS011;21602;55.670;37.578;2023-03-14T02:51:20;5.00;;;3.25;;
35488;SDS011;21602;55.670;37.578;2023-03-14T02:53:47;5.77;;;2.93;;
35488;SDS011;21602;55.670;37.578;2023-03-14T02:56:14;7.30;;;3.10;;
35488;SDS011;21602;55.670;37.578;2023-03-14T02:58:40;4.45;;;3.20;;
35488;SDS011;21602;55.670;37.578;2023-03-14T03:01:24;4.03;;;2.60;;
35488;SDS011;21602;55.670;37.578;2023-03-14T03:03:50;4.93;;;2.90;;
35488;SDS011;21602;55.670;37.578;2023-03-14T03:06:18;5.95;;;3.30;;
35488;SDS011;21602;55.670;37.578;2023-03-14T03:08:44;4.72;;;3.15;;
35488;SDS011;21602;55.670;37.578;2023-03-14T03:11:11;3.83;;;2.55;;
35488;SDS011;21602;55.670;37.578;2023-03-14T03:13:37;5.13;;;3.67;;
35488;SDS011;21602;55.670;37.578;2023-03-14T03:16:04;6.32;;;3.60;;
35488;SDS011;21602;55.670;37.578;2023-03-14T03:18:33;5.07;;;3.65;;
35488;SDS011;21602;55.670;37.578;2023-03-14T03:20:59;4.13;;;3.33;;
35488;SDS011;21602;55.670;37.578;2023-03-14T03:23:28;5.20;;;3.78;;
35488;SDS011;21602;55.670;37.578;2023-03-14T03:25:54;5.38;;;4.20;;
35488;SDS011;21602;55.670;37.578;2023-03-14T03:28:20;5.05;;;3.47;;
35488;SDS011;21602;55.670;37.578;2023-03-14T03:30:46;7.22;;;3.70;;
35488;SDS011;21602;55.670;37.578;2023-03-14T03:33:12;6.00;;;4.25;;
35488;SDS011;21602;55.670;37.578;2023-03-14T03:35:46;5.32;;;3.42;;
35488;SDS011;21602;55.670;37.578;2023-03-14T03:38:17;6.57;;;4.47;;
35488;SDS011;21602;55.670;37.578;2023-03-14T03:40:47;4.40;;;3.53;;
35488;SDS011;21602;55.670;37.578;2023-03-14T03:43:13;6.30;;;4.28;;
35488;SDS011;21602;55.670;37.578;2023-03-14T03:45:42;5.70;;;3.65;;
35488;SDS011;21602;55.670;37.578;2023-03-14T03:48:08;10.13;;;3.90;;
35488;SDS011;21602;55.670;37.578;2023-03-14T03:50:34;6.88;;;4.00;;
35488;SDS011;21602;55.670;37.578;2023-03-14T03:53:01;6.57;;;4.43;;
35488;SDS011;21602;55.670;37.578;2023-03-14T03:55:28;7.03;;;4.07;;
35488;SDS011;21602;55.670;37.578;2023-03-14T03:57:54;7.20;;;4.10;;
35488;SDS011;21602;55.670;37.578;2023-03-14T04:00:20;7.05;;;4.35;;
35488;SDS011;21602;55.670;37.578;2023-03-14T04:02:47;6.05;;;3.55;;
35488;SDS011;21602;55.670;37.578;2023-03-14T04:05:15;5.70;;;4.47;;
35488;SDS011;21602;55.670;37.578;2023-03-14T04:07:48;6.88;;;4.20;;
35488;SDS011;21602;55.670;37.578;2023-03-14T04:10:19;6.80;;;3.97;;
35488;SDS011;21602;55.670;37.578;2023-03-14T04:12:58;5.05;;;3.30;;
35488;SDS011;21602;55.670;37.578;2023-03-14T04:17:57;6.18;;;3.97;;
35488;SDS011;21602;55.670;37.578;2023-03-14T04:20:24;6.45;;;4.30;;
35488;SDS011;21602;55.670;37.578;2023-03-14T04:22:50;6.78;;;3.72;;
35488;SDS011;21602;55.670;37.578;2023-03-14T04:25:16;9.50;;;3.85;;
35488;SDS011;21602;55.670;37.578;2023-03-14T04:27:49;6.50;;;4.40;;
35488;SDS011;21602;55.670;37.578;2023-03-14T04:30:22;6.43;;;3.30;;
35488;SDS011;21602;55.670;37.578;2023-03-14T04:32:52;6.15;;;3.08;;
35488;SDS011;21602;55.670;37.578;2023-03-14T04:35:19;5.45;;;3.00;;
35488;SDS011;21602;55.670;37.578;2023-03-14T04:37:45;5.50;;;4.32;;
35488;SDS011;21602;55.670;37.578;2023-03-14T04:40:15;7.63;;;3.97;;
35488;SDS011;21602;55.670;37.578;2023-03-14T04:42:41;4.55;;;3.58;;
35488;SDS011;21602;55.670;37.578;2023-03-14T04:45:08;5.72;;;3.80;;
35488;SDS011;21602;55.670;37.578;2023-03-14T04:47:37;8.47;;;4.17;;
35488;SDS011;21602;55.670;37.578;2023-03-14T04:50:03;4.53;;;2.95;;
35488;SDS011;21602;55.670;37.578;2023-03-14T04:52:29;7.00;;;4.40;;
35488;SDS011;21602;55.670;37.578;2023-03-14T04:54:57;3.95;;;2.75;;
35488;SDS011;21602;55.670;37.578;2023-03-14T04:57:25;10.20;;;3.63;;
35488;SDS011;21602;55.670;37.578;2023-03-14T04:59:52;4.70;;;3.35;;
35488;SDS011;21602;55.670;37.578;2023-03-14T05:02:46;5.63;;;2.67;;
35488;SDS011;21602;55.670;37.578;2023-03-14T05:05:32;7.80;;;4.65;;
35488;SDS011;21602;55.670;37.578;2023-03-14T05:08:08;5.38;;;3.38;;
35488;SDS011;21602;55.670;37.578;2023-03-14T05:10:40;6.88;;;4.05;;
35488;SDS011;21602;55.670;37.578;2023-03-14T05:13:29;5.22;;;3.60;;
35488;SDS011;21602;55.670;37.578;2023-03-14T05:16:24;3.20;;;2.35;;
35488;SDS011;21602;55.670;37.578;2023-03-14T05:19:12;6.65;;;3.55;;
35488;SDS011;21602;55.670;37.578;2023-03-14T05:21:37;6.30;;;3.72;;
35488;SDS011;21602;55.670;37.578;2023-03-14T05:24:35;8.10;;;2.97;;
35488;SDS011;21602;55.670;37.578;2023-03-14T05:27:03;5.80;;;3.65;;
35488;SDS011;21602;55.670;37.578;2023-03-14T05:29:46;5.30;;;3.03;;
35488;SDS011;21602;55.670;37.578;2023-03-14T05:32:34;4.43;;;1.88;;
35488;SDS011;21602;55.670;37.578;2023-03-14T05:35:39;8.57;;;3.90;;
35488;SDS011;21602;55.670;37.578;2023-03-14T05:38:25;6.05;;;2.90;;
35488;SDS011;21602;55.670;37.578;2023-03-14T05:41:21;5.95;;;3.10;;
35488;SDS011;21602;55.670;37.578;2023-03-14T05:44:15;2.45;;;1.95;;
35488;SDS011;21602;55.670;37.578;2023-03-14T05:46:59;3.55;;;2.63;;
35488;SDS011;21602;55.670;37.578;2023-03-14T05:50:00;4.30;;;2.30;;
35488;SDS011;21602;55.670;37.578;2023-03-14T05:52:40;4.53;;;2.92;;
35488;SDS011;21602;55.670;37.578;2023-03-14T05:55:37;6.15;;;2.75;;
35488;SDS011;21602;55.670;37.578;2023-03-14T05:58:38;6.65;;;2.65;;
35488;SDS011;21602;55.670;37.578;2023-03-14T06:01:04;4.68;;;2.67;;
35488;SDS011;21602;55.670;37.578;2023-03-14T06:03:43;4.68;;;2.83;;
35488;SDS011;21602;55.670;37.578;2023-03-14T06:06:09;4.55;;;2.83;;
35488;SDS011;21602;55.670;37.578;2023-03-14T06:08:35;4.97;;;2.50;;
35488;SDS011;21602;55.670;37.578;2023-03-14T06:11:03;3.28;;;2.42;;
35488;SDS011;21602;55.670;37.578;2023-03-14T06:13:30;2.83;;;2.17;;
35488;SDS011;21602;55.670;37.578;2023-03-14T06:15:56;3.97;;;2.22;;
35488;SDS011;21602;55.670;37.578;2023-03-14T06:18:22;2.80;;;2.33;;
35488;SDS011;21602;55.670;37.578;2023-03-14T06:20:49;6.85;;;2.80;;
35488;SDS011;21602;55.670;37.578;2023-03-14T06:23:22;3.03;;;2.30;;
35488;SDS011;21602;55.670;37.578;2023-03-14T06:25:48;3.05;;;1.70;;
35488;SDS011;21602;55.670;37.578;2023-03-14T06:28:14;4.38;;;2.30;;
35488;SDS011;21602;55.670;37.578;2023-03-14T06:30:44;3.95;;;2.40;;
35488;SDS011;21602;55.670;37.578;2023-03-14T06:33:11;7.28;;;2.28;;
35488;SDS011;21602;55.670;37.578;2023-03-14T06:35:42;7.30;;;2.38;;
35488;SDS011;21602;55.670;37.578;2023-03-14T06:38:09;4.05;;;2.28;;
35488;SDS011;21602;55.670;37.578;2023-03-14T06:40:41;3.63;;;2.00;;
35488;SDS011;21602;55.670;37.578;2023-03-14T06:43:11;4.03;;;2.63;;
35488;SDS011;21602;55.670;37.578;2023-03-14T06:45:39;3.75;;;2.35;;
35488;SDS011;21602;55.670;37.578;2023-03-14T06:48:06;3.63;;;2.33;;
35488;SDS011;21602;55.670;37.578;2023-03-14T06:50:39;4.22;;;2.58;;
35488;SDS011;21602;55.670;37.578;2023-03-14T06:53:05;3.30;;;2.33;;
35488;SDS011;21602;55.670;37.578;2023-03-14T06:55:32;7.15;;;2.92;;
35488;SDS011;21602;55.670;37.578;2023-03-14T06:57:58;4.15;;;1.80;;
35488;SDS011;21602;55.670;37.578;2023-03-14T07:00:25;4.47;;;2.28;;
35488;SDS011;21602;55.670;37.578;2023-03-14T07:02:54;3.80;;;2.33;;
35488;SDS011;21602;55.670;37.578;2023-03-14T07:05:26;5.95;;;2.17;;
35488;SDS011;21602;55.670;37.578;2023-03-14T07:07:52;6.03;;;1.90;;
35488;SDS011;21602;55.670;37.578;2023-03-14T07:10:18;3.78;;;1.98;;
35488;SDS011;21602;55.670;37.578;2023-03-14T07:12:44;3.45;;;2.00;;
35488;SDS011;21602;55.670;37.578;2023-03-14T07:15:13;2.53;;;1.73;;
35488;SDS011;21602;55.670;37.578;2023-03-14T07:17:40;4.13;;;1.88;;
35488;SDS011;21602;55.670;37.578;2023-03-14T07:20:09;3.25;;;1.80;;
35488;SDS011;21602;55.670;37.578;2023-03-14T07:22:35;7.05;;;2.08;;
35488;SDS011;21602;55.670;37.578;2023-03-14T07:25:05;3.63;;;2.28;;
35488;SDS011;21602;55.670;37.578;2023-03-14T07:27:35;6.32;;;1.90;;
35488;SDS011;21602;55.670;37.578;2023-03-14T07:30:02;3.88;;;2.03;;
35488;SDS011;21602;55.670;37.578;2023-03-14T07:32:29;2.30;;;1.90;;
35488;SDS011;21602;55.670;37.578;2023-03-14T07:34:59;4.75;;;2.03;;
35488;SDS011;21602;55.670;37.578;2023-03-14T07:37:28;6.03;;;1.38;;
35488;SDS011;21602;55.670;37.578;2023-03-14T07:42:26;3.13;;;1.88;;
35488;SDS011;21602;55.670;37.578;2023-03-14T07:45:16;6.40;;;3.42;;
35488;SDS011;21602;55.670;37.578;2023-03-14T07:47:41;5.72;;;1.90;;
35488;SDS011;21602;55.670;37.578;2023-03-14T07:50:10;6.75;;;2.28;;
35488;SDS011;21602;55.670;37.578;2023-03-14T07:52:36;4.07;;;2.50;;
35488;SDS011;21602;55.670;37.578;2023-03-14T07:55:03;5.20;;;2.30;;
35488;SDS011;21602;55.670;37.578;2023-03-14T07:57:29;5.88;;;2.10;;
35488;SDS011;21602;55.670;37.578;2023-03-14T07:59:55;3.47;;;2.03;;
35488;SDS011;21602;55.670;37.578;2023-03-14T08:02:21;3.40;;;2.22;;
35488;SDS011;21602;55.670;37.578;2023-03-14T08:04:50;5.32;;;2.67;;
35488;SDS011;21602;55.670;37.578;2023-03-14T08:07:16;5.78;;;2.35;;
35488;SDS011;21602;55.670;37.578;2023-03-14T08:09:42;7.95;;;2.53;;
35488;SDS011;21602;55.670;37.578;2023-03-14T08:12:09;4.35;;;2.17;;
35488;SDS011;21602;55.670;37.578;2023-03-14T08:14:38;3.50;;;2.30;;
35488;SDS011;21602;55.670;37.578;2023-03-14T08:17:04;8.48;;;2.50;;
35488;SDS011;21602;55.670;37.578;2023-03-14T08:19:33;4.95;;;2.13;;
35488;SDS011;21602;55.670;37.578;2023-03-14T08:21:59;4.93;;;2.20;;
35488;SDS011;21602;55.670;37.578;2023-03-14T08:24:25;20.13;;;2.67;;
35488;SDS011;21602;55.670;37.578;2023-03-14T08:26:54;2.60;;;1.73;;
35488;SDS011;21602;55.670;37.578;2023-03-14T08:29:20;4.45;;;2.03;;
35488;SDS011;21602;55.670;37.578;2023-03-14T08:31:46;6.88;;;2.38;;
35488;SDS011;21602;55.670;37.578;2023-03-14T08:34:14;4.82;;;2.70;;
35488;SDS011;21602;55.670;37.578;2023-03-14T08:36:41;3.65;;;2.38;;
35488;SDS011;21602;55.670;37.578;2023-03-14T08:39:10;3.85;;;2.30;;
35488;SDS011;21602;55.670;37.578;2023-03-14T08:41:37;4.50;;;2.50;;
35488;SDS011;21602;55.670;37.578;2023-03-14T08:44:06;3.22;;;2.15;;
35488;SDS011;21602;55.670;37.578;2023-03-14T08:46:35;5.65;;;2.20;;
35488;SDS011;21602;55.670;37.578;2023-03-14T08:49:01;3.60;;;2.10;;
35488;SDS011;21602;55.670;37.578;2023-03-14T08:51:27;2.92;;;1.90;;
35488;SDS011;21602;55.670;37.578;2023-03-14T08:53:53;3.85;;;2.25;;
35488;SDS011;21602;55.670;37.578;2023-03-14T08:56:19;5.65;;;2.20;;
35488;SDS011;21602;55.670;37.578;2023-03-14T08:58:45;5.43;;;2.47;;
35488;SDS011;21602;55.670;37.578;2023-03-14T09:01:11;4.00;;;1.83;;
35488;SDS011;21602;55.670;37.578;2023-03-14T09:03:37;4.18;;;3.17;;
35488;SDS011;21602;55.670;37.578;2023-03-14T09:06:04;4.00;;;2.00;;
35488;SDS011;21602;55.670;37.578;2023-03-14T09:08:39;4.88;;;2.20;;
35488;SDS011;21602;55.670;37.578;2023-03-14T09:11:08;3.15;;;2.22;;
35488;SDS011;21602;55.670;37.578;2023-03-14T09:13:34;3.22;;;2.25;;
35488;SDS011;21602;55.670;37.578;2023-03-14T09:16:00;4.82;;;2.00;;
35488;SDS011;21602;55.670;37.578;2023-03-14T09:18:29;4.75;;;2.40;;
35488;SDS011;21602;55.670;37.578;2023-03-14T09:20:56;3.65;;;2.38;;
35488;SDS011;21602;55.670;37.578;2023-03-14T09:23:22;7.30;;;2.00;;
35488;SDS011;21602;55.670;37.578;2023-03-14T09:25:48;5.53;;;2.10;;
35488;SDS011;21602;55.670;37.578;2023-03-14T09:28:21;4.93;;;2.50;;
35488;SDS011;21602;55.670;37.578;2023-03-14T09:30:47;7.93;;;2.42;;
35488;SDS011;21602;55.670;37.578;2023-03-14T09:33:12;5.97;;;2.20;;
35488;SDS011;21602;55.670;37.578;2023-03-14T09:35:39;6.45;;;2.70;;
35488;SDS011;21602;55.670;37.578;2023-03-14T09:38:08;3.72;;;2.03;;
35488;SDS011;21602;55.670;37.578;2023-03-14T09:40:34;5.60;;;3.08;;
35488;SDS011;21602;55.670;37.578;2023-03-14T09:45:36;5.18;;;2.47;;
35488;SDS011;21602;55.670;37.578;2023-03-14T09:48:05;2.85;;;1.90;;
35488;SDS011;21602;55.670;37.578;2023-03-14T09:50:39;3.83;;;2.55;;
35488;SDS011;21602;55.670;37.578;2023-03-14T09:53:12;4.35;;;2.47;;
35488;SDS011;21602;55.670;37.578;2023-03-14T09:55:42;5.20;;;2.60;;
35488;SDS011;21602;55.670;37.578;2023-03-14T09:58:11;3.15;;;1.92;;
35488;SDS011;21602;55.670;37.578;2023-03-14T10:00:42;4.40;;;2.63;;
35488;SDS011;21602;55.670;37.578;2023-03-14T10:05:46;4.97;;;2.20;;
35488;SDS011;21602;55.670;37.578;2023-03-14T10:08:13;5.35;;;2.17;;
35488;SDS011;21602;55.670;37.578;2023-03-14T10:10:39;2.53;;;1.98;;
35488;SDS011;21602;55.670;37.578;2023-03-14T10:15:35;3.97;;;2.25;;
35488;SDS011;21602;55.670;37.578;2023-03-14T10:18:03;4.72;;;2.53;;
35488;SDS011;21602;55.670;37.578;2023-03-14T10:20:38;3.45;;;2.55;;
35488;SDS011;21602;55.670;37.578;2023-03-14T10:23:18;4.15;;;2.28;;
35488;SDS011;21602;55.670;37.578;2023-03-14T10:26:07;2.55;;;2.17;;
35488;SDS011;21602;55.670;37.578;2023-03-14T10:28:39;7.60;;;2.42;;
35488;SDS011;21602;55.670;37.578;2023-03-14T10:31:15;4.28;;;2.00;;
35488;SDS011;21602;55.670;37.578;2023-03-14T10:33:41;4.20;;;2.60;;
35488;SDS011;21602;55.670;37.578;2023-03-14T10:41:48;3.45;;;2.25;;
35488;SDS011;21602;55.670;37.578;2023-03-14T10:44:19;6.28;;;2.47;;
35488;SDS011;21602;55.670;37.578;2023-03-14T10:47:01;4.82;;;2.55;;
35488;SDS011;21602;55.670;37.578;2023-03-14T10:49:30;4.90;;;2.10;;
35488;SDS011;21602;55.670;37.578;2023-03-14T10:54:58;4.18;;;2.20;;
35488;SDS011;21602;55.670;37.578;2023-03-14T10:57:27;6.25;;;2.80;;
35488;SDS011;21602;55.670;37.578;2023-03-14T10:59:53;2.90;;;2.13;;
35488;SDS011;21602;55.670;37.578;2023-03-14T11:11:16;4.57;;;2.25;;
35488;SDS011;21602;55.670;37.578;2023-03-14T11:26:14;3.47;;;2.10;;
35488;SDS011;21602;55.670;37.578;2023-03-14T11:28:37;6.20;;;3.20;;
35488;SDS011;21602;55.670;37.578;2023-03-14T11:31:14;3.95;;;2.38;;
35488;SDS011;21602;55.670;37.578;2023-03-14T11:34:07;3.42;;;2.10;;
35488;SDS011;21602;55.670;37.578;2023-03-14T11:36:59;3.60;;;2.05;;
35488;SDS011;21602;55.670;37.578;2023-03-14T11:39:35;4.00;;;2.25;;
35488;SDS011;21602;55.670;37.578;2023-03-14T11:42:04;2.67;;;1.90;;
35488;SDS011;21602;55.670;37.578;2023-03-14T11:44:38;3.78;;;1.95;;
35488;SDS011;21602;55.670;37.578;2023-03-14T11:47:12;13.90;;;2.80;;
35488;SDS011;21602;55.670;37.578;2023-03-14T11:49:50;4.68;;;2.65;;
35488;SDS011;21602;55.670;37.578;2023-03-14T12:00:42;3.92;;;2.45;;
35488;SDS011;21602;55.670;37.578;2023-03-14T12:03:32;5.40;;;2.65;;
35488;SDS011;21602;55.670;37.578;2023-03-14T12:06:06;3.03;;;2.33;;
35488;SDS011;21602;55.670;37.578;2023-03-14T12:08:49;3.10;;;2.05;;
35488;SDS011;21602;55.670;37.578;2023-03-14T12:13:55;3.33;;;2.05;;
35488;SDS011;21602;55.670;37.578;2023-03-14T12:18:52;3.30;;;2.10;;
35488;SDS011;21602;55.670;37.578;2023-03-14T12:21:19;4.05;;;2.50;;
35488;SDS011;21602;55.670;37.578;2023-03-14T12:23:48;3.45;;;2.38;;
35488;SDS011;21602;55.670;37.578;2023-03-14T12:26:17;2.92;;;1.85;;
35488;SDS011;21602;55.670;37.578;2023-03-14T12:28:44;3.53;;;2.40;;
35488;SDS011;21602;55.670;37.578;2023-03-14T12:47:50;2.40;;;1.95;;
35488;SDS011;21602;55.670;37.578;2023-03-14T12:56:25;10.07;;;2.17;;
35488;SDS011;21602;55.670;37.578;2023-03-14T13:01:44;3.47;;;2.35;;
35488;SDS011;21602;55.670;37.578;2023-03-14T13:04:13;5.78;;;2.40;;
35488;SDS011;21602;55.670;37.578;2023-03-14T13:06:51;3.88;;;2.13;;
35488;SDS011;21602;55.670;37.578;2023-03-14T13:12:02;5.53;;;2.13;;
35488;SDS011;21602;55.670;37.578;2023-03-14T13:14:35;4.32;;;2.15;;
35488;SDS011;21602;55.670;37.578;2023-03-14T13:17:10;3.65;;;2.30;;
35488;SDS011;21602;55.670;37.578;2023-03-14T13:19:39;4.20;;;2.55;;
35488;SDS011;21602;55.670;37.578;2023-03-14T13:22:06;5.60;;;2.33;;
35488;SDS011;21602;55.670;37.578;2023-03-14T13:24:42;3.65;;;2.90;;
35488;SDS011;21602;55.670;37.578;2023-03-14T13:27:14;9.82;;;2.40;;
35488;SDS011;21602;55.670;37.578;2023-03-14T13:29:49;5.15;;;2.55;;
35488;SDS011;21602;55.670;37.578;2023-03-14T13:32:19;3.38;;;2.00;;
35488;SDS011;21602;55.670;37.578;2023-03-14T13:34:46;2.90;;;2.10;;
35488;SDS011;21602;55.670;37.578;2023-03-14T13:37:18;5.10;;;2.83;;
35488;SDS011;21602;55.670;37.578;2023-03-14T13:39:56;15.40;;;2.67;;
35488;SDS011;21602;55.670;37.578;2023-03-14T13:42:26;4.55;;;2.20;;
35488;SDS011;21602;55.670;37.578;2023-03-14T13:44:54;2.85;;;2.00;;
35488;SDS011;21602;55.670;37.578;2023-03-14T13:47:26;3.30;;;2.25;;
35488;SDS011;21602;55.670;37.578;2023-03-14T13:49:52;1.88;;;1.75;;
35488;SDS011;21602;55.670;37.578;2023-03-14T13:52:29;4.50;;;2.42;;
35488;SDS011;21602;55.670;37.578;2023-03-14T13:55:01;2.95;;;2.17;;
35488;SDS011;21602;55.670;37.578;2023-03-14T13:57:48;4.28;;;2.30;;
35488;SDS011;21602;55.670;37.578;2023-03-14T14:00:21;2.75;;;2.05;;
35488;SDS011;21602;55.670;37.578;2023-03-14T14:02:55;4.18;;;2.45;;
35488;SDS011;21602;55.670;37.578;2023-03-14T14:05:25;3.45;;;2.20;;
35488;SDS011;21602;55.670;37.578;2023-03-14T14:07:53;3.83;;;2.40;;
35488;SDS011;21602;55.670;37.578;2023-03-14T14:10:19;3.92;;;2.42;;
35488;SDS011;21602;55.670;37.578;2023-03-14T14:12:48;3.17;;;2.05;;
35488;SDS011;21602;55.670;37.578;2023-03-14T14:15:27;4.38;;;2.17;;
35488;SDS011;21602;55.670;37.578;2023-03-14T14:17:57;3.97;;;1.75;;
35488;SDS011;21602;55.670;37.578;2023-03-14T14:20:30;3.92;;;2.40;;
35488;SDS011;21602;55.670;37.578;2023-03-14T14:23:04;4.35;;;2.50;;
35488;SDS011;21602;55.670;37.578;2023-03-14T14:25:32;3.55;;;2.72;;
35488;SDS011;21602;55.670;37.578;2023-03-14T14:27:59;5.40;;;2.28;;
35488;SDS011;21602;55.670;37.578;2023-03-14T14:30:39;4.35;;;2.58;;
35488;SDS011;21602;55.670;37.578;2023-03-14T14:33:18;5.03;;;2.22;;
35488;SDS011;21602;55.670;37.578;2023-03-14T14:35:53;2.78;;;2.22;;
35488;SDS011;21602;55.670;37.578;2023-03-14T14:38:22;5.05;;;2.35;;
35488;SDS011;21602;55.670;37.578;2023-03-14T14:40:53;5.22;;;2.83;;
35488;SDS011;21602;55.670;37.578;2023-03-14T14:43:26;3.17;;;2.33;;
35488;SDS011;21602;55.670;37.578;2023-03-14T14:45:55;4.32;;;2.47;;
35488;SDS011;21602;55.670;37.578;2023-03-14T14:48:25;6.63;;;2.47;;
35488;SDS011;21602;55.670;37.578;2023-03-14T14:50:58;3.33;;;2.63;;
35488;SDS011;21602;55.670;37.578;2023-03-14T14:53:39;3.83;;;2.30;;
35488;SDS011;21602;55.670;37.578;2023-03-14T14:56:18;4.95;;;2.42;;
35488;SDS011;21602;55.670;37.578;2023-03-14T14:58:57;4.13;;;2.67;;
35488;SDS011;21602;55.670;37.578;2023-03-14T15:01:25;3.72;;;2.40;;
35488;SDS011;21602;55.670;37.578;2023-03-14T15:03:56;5.25;;;2.85;;
35488;SDS011;21602;55.670;37.578;2023-03-14T15:06:22;6.88;;;2.63;;
35488;SDS011;21602;55.670;37.578;2023-03-14T15:08:58;4.30;;;2.47;;
35488;SDS011;21602;55.670;37.578;2023-03-14T15:11:25;4.28;;;2.42;;
35488;SDS011;21602;55.670;37.578;2023-03-14T15:13:52;5.53;;;2.80;;
35488;SDS011;21602;55.670;37.578;2023-03-14T15:16:51;5.88;;;2.47;;
35488;SDS011;21602;55.670;37.578;2023-03-14T15:19:23;4.07;;;2.20;;
35488;SDS011;21602;55.670;37.578;2023-03-14T15:21:52;4.70;;;2.13;;
35488;SDS011;21602;55.670;37.578;2023-03-14T15:24:24;3.50;;;2.25;;
35488;SDS011;21602;55.670;37.578;2023-03-14T15:26:51;3.95;;;2.40;;
35488;SDS011;21602;55.670;37.578;2023-03-14T15:29:17;2.95;;;2.20;;
35488;SDS011;21602;55.670;37.578;2023-03-14T15:31:43;3.70;;;2.60;;
35488;SDS011;21602;55.670;37.578;2023-03-14T15:34:09;2.88;;;2.22;;
35488;SDS011;21602;55.670;37.578;2023-03-14T15:36:36;4.18;;;2.42;;
35488;SDS011;21602;55.670;37.578;2023-03-14T15:39:06;8.70;;;2.30;;
35488;SDS011;21602;55.670;37.578;2023-03-14T15:41:33;3.78;;;2.70;;
35488;SDS011;21602;55.670;37.578;2023-03-14T15:43:58;4.07;;;2.33;;
35488;SDS011;21602;55.670;37.578;2023-03-14T15:46:24;4.53;;;2.55;;
35488;SDS011;21602;55.670;37.578;2023-03-14T15:48:51;4.03;;;2.58;;
35488;SDS011;21602;55.670;37.578;2023-03-14T15:51:18;6.03;;;2.58;;
35488;SDS011;21602;55.670;37.578;2023-03-14T15:53:44;4.65;;;2.78;;
35488;SDS011;21602;55.670;37.578;2023-03-14T15:56:11;4.95;;;2.45;;
35488;SDS011;21602;55.670;37.578;2023-03-14T15:58:43;4.70;;;2.28;;
35488;SDS011;21602;55.670;37.578;2023-03-14T16:01:12;5.55;;;2.65;;
35488;SDS011;21602;55.670;37.578;2023-03-14T16:03:41;4.80;;;2.85;;
35488;SDS011;21602;55.670;37.578;2023-03-14T16:06:09;4.43;;;2.40;;
35488;SDS011;21602;55.670;37.578;2023-03-14T16:08:35;4.07;;;2.67;;
35488;SDS011;21602;55.670;37.578;2023-03-14T16:11:08;3.97;;;2.25;;
35488;SDS011;21602;55.670;37.578;2023-03-14T16:13:37;7.97;;;3.08;;
35488;SDS011;21602;55.670;37.578;2023-03-14T16:16:04;5.43;;;2.83;;
35488;SDS011;21602;55.670;37.578;2023-03-14T16:18:31;5.63;;;2.67;;
35488;SDS011;21602;55.670;37.578;2023-03-14T16:20:59;6.07;;;2.60;;
35488;SDS011;21602;55.670;37.578;2023-03-14T16:23:27;4.20;;;2.33;;
35488;SDS011;21602;55.670;37.578;2023-03-14T16:26:03;5.95;;;2.65;;
35488;SDS011;21602;55.670;37.578;2023-03-14T16:28:33;5.53;;;2.90;;